Christine Anderson — WCN2606 — position and weather

sailwx.info

Track history (hours):
 
Tides and Currents Weather Stations Pressure Air Temp Water Temp Dewpoint Dewpoint Depression Visibility Wind Speed Wind Dir Waves Ship Positions

Christine Anderson

Owner: PIERCE, COUNTY OF, TACOMA, WA. More information available from US FCC via Universal Licensing System and Coast Guard Vessel Documentation Center.

Last reported at 2017-Oct-19 02:00 UTC. Time now 2017-Oct-19 02:23 UTC.
Position N 47°11' W 122°41'.

Length 60 m; draft 3 m.

Type: Passenger vessel. MMSI: 366659730.

Date/timePositionNaut miles runAvg speedWind from/ knotsBaromVisibWave heightAir tempDewpointWater temp
2017-Oct-19 02:00N 47°11' W 122°41'3 5.9
2017-Oct-19 01:29N 47°10' W 122°36'3 5.0
2017-Oct-19 00:53N 47°11' W 122°41'3 8.1
2017-Oct-19 00:30N 47°10' W 122°36'1 2.9
2017-Oct-19 00:00N 47°10' W 122°38'0 0.9
2017-Oct-18 23:30N 47°11' W 122°38'0 0.6
2017-Oct-18 23:00N 47°10' W 122°38'1 1.1
2017-Oct-18 22:30N 47°11' W 122°38'0 0.2
2017-Oct-18 22:00N 47°11' W 122°38'0 0.7
2017-Oct-18 21:30N 47°11' W 122°38'2 2.1
2017-Oct-18 20:43N 47°10' W 122°36'0 0.0
2017-Oct-18 20:26N 47°10' W 122°36'1 2.3
2017-Oct-18 19:58N 47°10' W 122°38'2 4.8
2017-Oct-18 19:30N 47°11' W 122°41'3 6.0
2017-Oct-18 18:59N 47°10' W 122°36'0 0.2
2017-Oct-18 18:30N 47°11' W 122°36'3 2.7
2017-Oct-18 17:23N 47°11' W 122°41'3 7.8
2017-Oct-18 16:59N 47°10' W 122°36'3 6.2
2017-Oct-18 16:30N 47°11' W 122°41'3 5.9
2017-Oct-18 16:00N 47°10' W 122°36'3 4.3
2017-Oct-18 15:19N 47°11' W 122°41'3 9.9
2017-Oct-18 15:00N 47°10' W 122°36'1 1.2
2017-Oct-18 14:00N 47°10' W 122°38'1 2.4
2017-Oct-18 13:30N 47°11' W 122°37'2 4.4
2017-Oct-18 13:00N 47°11' W 122°40'2 4.9
2017-Oct-18 12:30N 47°11' W 122°36'3 5.3
2017-Oct-18 12:00N 47°11' W 122°40'3 5.5
2017-Oct-18 11:30N 47°10' W 122°36'0 0.0
2017-Oct-18 04:29N 47°10' W 122°36'3 5.8
2017-Oct-18 04:00N 47°11' W 122°40'2 4.5
2017-Oct-18 03:29N 47°11' W 122°37'1 2.2
2017-Oct-18 03:00N 47°11' W 122°38'1 2.4
2017-Oct-18 02:30N 47°10' W 122°38'2 4.3
2017-Oct-18 02:00N 47°11' W 122°41'3 6.1
2017-Oct-18 01:30N 47°10' W 122°36'3 6.2
2017-Oct-18 01:00N 47°11' W 122°41'3 5.9
2017-Oct-18 00:30N 47°10' W 122°36'2 4.0
2017-Oct-18 00:00N 47°11' W 122°39'1 2.6
2017-Oct-17 23:30N 47°11' W 122°37'0 0.8
2017-Oct-17 23:00N 47°11' W 122°38'0 0.6
2017-Oct-17 22:30N 47°11' W 122°38'0 1.0
2017-Oct-17 22:00N 47°11' W 122°39'1 1.9
2017-Oct-17 21:30N 47°12' W 122°38'1 1.4
2017-Oct-17 20:27N 47°10' W 122°36'1 1.9
2017-Oct-17 20:00N 47°10' W 122°37'2 4.3
2017-Oct-17 19:28N 47°11' W 122°41'3 6.7
2017-Oct-17 19:00N 47°10' W 122°36'0 0.0
2017-Oct-17 18:30N 47°10' W 122°36'2 3.9
2017-Oct-17 18:00N 47°11' W 122°39'1 2.4
2017-Oct-17 17:30N 47°10' W 122°38'1 1.9
2017-Oct-17 17:00N 47°10' W 122°36'3 6.1
2017-Oct-17 16:30N 47°11' W 122°41'3 6.1
2017-Oct-17 16:00N 47°10' W 122°36'3 6.1
2017-Oct-17 15:30N 47°11' W 122°41'3 4.9
2017-Oct-17 14:53N 47°10' W 122°36'3 5.7
2017-Oct-17 14:21N 47°11' W 122°41'2 6.4
2017-Oct-17 14:00N 47°10' W 122°38'1 2.6
2017-Oct-17 13:30N 47°11' W 122°37'2 4.6
2017-Oct-17 13:00N 47°11' W 122°40'2 4.8
2017-Oct-17 12:30N 47°11' W 122°36'2 4.9
2017-Oct-17 12:00N 47°11' W 122°40'3 5.2
2017-Oct-17 11:30N 47°10' W 122°36'0 0.0
2017-Oct-17 04:33N 47°10' W 122°36'0 0.0
2017-Oct-17 04:29N 47°10' W 122°36'3 6.3
2017-Oct-17 04:00N 47°11' W 122°41'3 5.3
2017-Oct-17 03:30N 47°11' W 122°37'1 2.0
2017-Oct-17 03:00N 47°10' W 122°38'1 1.5
2017-Oct-17 02:30N 47°10' W 122°38'2 4.4
2017-Oct-17 02:00N 47°11' W 122°41'3 6.1
2017-Oct-17 01:30N 47°10' W 122°36'3 5.7
2017-Oct-17 01:00N 47°11' W 122°40'3 5.6
2017-Oct-17 00:30N 47°10' W 122°36'1 2.4
2017-Oct-17 00:00N 47°11' W 122°37'1 2.3
2017-Oct-16 23:30N 47°11' W 122°39'1 2.4
2017-Oct-16 23:00N 47°11' W 122°37'1 1.5
2017-Oct-16 22:30N 47°11' W 122°38'0 0.7
2017-Oct-16 22:00N 47°11' W 122°38'1 1.2
2017-Oct-16 21:30N 47°11' W 122°39'2 3.2
2017-Oct-16 21:00N 47°10' W 122°36'0 0.0
2017-Oct-16 20:30N 47°10' W 122°36'1 2.0
2017-Oct-16 19:58N 47°10' W 122°38'2 5.0
2017-Oct-16 19:30N 47°11' W 122°41'3 5.5
2017-Oct-16 18:57N 47°10' W 122°36'0 0.0
2017-Oct-16 18:21N 47°10' W 122°36'0 0.0
2017-Oct-16 17:55N 47°10' W 122°36'3 6.8
2017-Oct-16 17:28N 47°11' W 122°41'3 6.4
2017-Oct-16 17:00N 47°10' W 122°36'3 6.2
2017-Oct-16 16:30N 47°11' W 122°41'3 4.5
2017-Oct-16 15:50N 47°10' W 122°36'3 8.8
2017-Oct-16 15:29N 47°11' W 122°41'3 6.2
2017-Oct-16 15:00N 47°10' W 122°36'1 1.3
2017-Oct-16 13:59N 47°10' W 122°38'1 2.0
2017-Oct-16 13:28N 47°11' W 122°37'2 4.1
2017-Oct-16 13:00N 47°11' W 122°40'2 4.9
2017-Oct-16 12:30N 47°11' W 122°36'2 4.7
2017-Oct-16 12:00N 47°11' W 122°40'3 5.0
2017-Oct-16 11:30N 47°10' W 122°36'0 0.0
2017-Oct-16 11:00N 47°10' W 122°36'0 0.0
2017-Oct-16 10:30N 47°10' W 122°36'0 0.0
2017-Oct-16 10:00N 47°10' W 122°36'0 0.0
2017-Oct-16 09:30N 47°10' W 122°36'0 0.0
2017-Oct-16 08:59N 47°10' W 122°36'0 0.0
2017-Oct-16 08:27N 47°10' W 122°36'0 0.0
2017-Oct-16 07:59N 47°10' W 122°36'0 0.0
2017-Oct-16 07:29N 47°10' W 122°36'0 0.0
2017-Oct-16 06:58N 47°10' W 122°36'0 0.0
2017-Oct-16 06:29N 47°10' W 122°36'0 0.0
2017-Oct-16 06:00N 47°10' W 122°36'0 0.0
2017-Oct-16 05:30N 47°10' W 122°36'0 0.0
2017-Oct-16 04:27N 47°10' W 122°36'3 6.6
2017-Oct-16 04:00N 47°11' W 122°40'2 4.4
2017-Oct-16 03:27N 47°11' W 122°37'1 2.4
2017-Oct-16 03:00N 47°11' W 122°39'1 2.4
2017-Oct-16 02:30N 47°10' W 122°38'2 4.3
2017-Oct-16 01:59N 47°11' W 122°41'3 6.3
2017-Oct-16 01:30N 47°10' W 122°36'3 5.7
2017-Oct-16 01:00N 47°11' W 122°40'3 5.6
2017-Oct-16 00:30N 47°10' W 122°36'0 0.0
2017-Oct-15 21:19N 47°10' W 122°36'0 0.0
2017-Oct-15 21:00N 47°10' W 122°36'0 0.0
2017-Oct-15 20:30N 47°10' W 122°36'0 0.8
2017-Oct-15 20:00N 47°10' W 122°37'3 3.6
2017-Oct-15 19:17N 47°11' W 122°41'310.6
2017-Oct-15 19:00N 47°10' W 122°36'0 0.1
2017-Oct-15 18:29N 47°10' W 122°36'0 0.0
2017-Oct-15 17:59N 47°10' W 122°36'3 6.3
2017-Oct-15 17:30N 47°11' W 122°41'3 5.8
2017-Oct-15 16:59N 47°10' W 122°36'3 6.1
2017-Oct-15 16:30N 47°11' W 122°40'3 5.7
2017-Oct-15 16:00N 47°10' W 122°36'3 5.8
2017-Oct-15 15:30N 47°11' W 122°40'3 5.9
2017-Oct-15 15:00N 47°10' W 122°36'1 1.2
2017-Oct-15 14:00N 47°10' W 122°38'1 2.4
2017-Oct-15 13:30N 47°10' W 122°36'0 0.0
2017-Oct-15 05:49N 47°10' W 122°36'3 9.2
2017-Oct-15 05:30N 47°11' W 122°40'3 5.7
2017-Oct-15 05:00N 47°10' W 122°36'0 0.2
2017-Oct-15 04:30N 47°10' W 122°36'3 6.0
2017-Oct-15 04:00N 47°11' W 122°41'2 4.7
2017-Oct-15 03:30N 47°11' W 122°37'1 1.7
2017-Oct-15 03:00N 47°11' W 122°38'1 2.2
2017-Oct-15 02:30N 47°10' W 122°38'2 4.4
2017-Oct-15 02:00N 47°11' W 122°41'3 6.0
2017-Oct-15 01:30N 47°10' W 122°36'3 5.9
2017-Oct-15 00:59N 47°11' W 122°41'3 6.2
2017-Oct-15 00:30N 47°10' W 122°36'1 2.3
2017-Oct-15 00:00N 47°11' W 122°38'0 0.9
2017-Oct-14 23:30N 47°11' W 122°38'0 0.6
2017-Oct-14 23:00N 47°11' W 122°38'0 0.2
2017-Oct-14 22:30N 47°11' W 122°38'0 0.1
2017-Oct-14 22:00N 47°11' W 122°38'0 0.7
2017-Oct-14 21:30N 47°11' W 122°39'2 3.4
2017-Oct-14 21:00N 47°10' W 122°36'0 0.0
2017-Oct-14 20:27N 47°10' W 122°36'0 0.7
2017-Oct-14 20:00N 47°10' W 122°37'3 4.2
2017-Oct-14 19:22N 47°11' W 122°41'3 8.3
2017-Oct-14 19:00N 47°10' W 122°36'0 0.1
2017-Oct-14 18:29N 47°10' W 122°36'0 0.0
2017-Oct-14 18:00N 47°10' W 122°36'3 6.1
2017-Oct-14 17:30N 47°11' W 122°40'3 5.6
2017-Oct-14 16:59N 47°10' W 122°36'3 6.2
2017-Oct-14 16:30N 47°11' W 122°40'3 5.8
2017-Oct-14 16:00N 47°10' W 122°36'3 6.0
2017-Oct-14 15:30N 47°11' W 122°40'3 5.7
2017-Oct-14 15:00N 47°10' W 122°36'3 5.9
2017-Oct-14 14:30N 47°11' W 122°41'2 4.4
2017-Oct-14 14:00N 47°10' W 122°38'1 2.2
2017-Oct-14 13:30N 47°10' W 122°36'3 5.7
2017-Oct-14 13:00N 47°11' W 122°40'3 5.3
2017-Oct-14 12:28N 47°10' W 122°36'0 0.0
2017-Oct-14 06:05N 47°10' W 122°36'0 3.0
2017-Oct-14 05:59N 47°11' W 122°36'3 4.1
2017-Oct-14 05:18N 47°11' W 122°41'310.0
2017-Oct-14 05:00N 47°10' W 122°36'0 0.0
2017-Oct-14 04:30N 47°10' W 122°36'3 5.1
2017-Oct-14 04:00N 47°11' W 122°40'1 2.4
2017-Oct-14 03:30N 47°11' W 122°38'1 1.2
2017-Oct-14 03:00N 47°11' W 122°37'1 1.8
2017-Oct-14 02:30N 47°10' W 122°38'2 4.5
2017-Oct-14 02:00N 47°11' W 122°41'2 1.2
2017-Oct-14 00:02N 47°11' W 122°37'1 1.0
2017-Oct-13 23:19N 47°10' W 122°36'1 3.0
2017-Oct-13 23:00N 47°11' W 122°38'0 0.8
2017-Oct-13 22:30N 47°11' W 122°38'0 0.7
2017-Oct-13 22:00N 47°11' W 122°39'0 0.0
2017-Oct-13 21:30N 47°11' W 122°39'2 3.3
2017-Oct-13 20:59N 47°10' W 122°36'0 0.0
2017-Oct-13 20:29N 47°10' W 122°36'1 2.4
2017-Oct-13 20:00N 47°10' W 122°38'2 4.7
2017-Oct-13 19:30N 47°11' W 122°41'3 5.7
2017-Oct-13 18:59N 47°10' W 122°36'0 0.0
2017-Oct-13 18:30N 47°10' W 122°36'0 0.0
2017-Oct-13 18:00N 47°10' W 122°36'3 5.2
2017-Oct-13 17:25N 47°11' W 122°41'3 7.1
2017-Oct-13 17:00N 47°10' W 122°36'3 6.1
2017-Oct-13 16:30N 47°11' W 122°41'3 6.2
2017-Oct-13 16:00N 47°10' W 122°36'3 5.8
2017-Oct-13 15:29N 47°11' W 122°41'3 6.2
2017-Oct-13 15:00N 47°11' W 122°36'3 5.8
2017-Oct-13 14:30N 47°11' W 122°40'2 4.3
2017-Oct-13 14:00N 47°10' W 122°38'1 2.7
2017-Oct-13 13:30N 47°11' W 122°36'3 5.4
2017-Oct-13 13:00N 47°11' W 122°40'3 5.5
2017-Oct-13 12:30N 47°11' W 122°36'3 5.6
2017-Oct-13 12:00N 47°11' W 122°40'3 5.0
2017-Oct-13 11:26N 47°10' W 122°36'0 0.0
2017-Oct-13 04:27N 47°10' W 122°36'3 6.9
2017-Oct-13 04:00N 47°11' W 122°41'3 5.9
2017-Oct-13 03:29N 47°10' W 122°36'3 5.2
2017-Oct-13 03:00N 47°11' W 122°40'2 3.7
2017-Oct-13 02:30N 47°10' W 122°38'2 4.6
2017-Oct-13 02:00N 47°11' W 122°41'3 4.5
2017-Oct-13 01:20N 47°10' W 122°36'3 8.8
2017-Oct-13 01:00N 47°11' W 122°41'3 5.8
2017-Oct-13 00:29N 47°10' W 122°36'2 3.3
2017-Oct-13 00:00N 47°11' W 122°38'0 0.7
2017-Oct-12 23:30N 47°11' W 122°38'0 0.9
2017-Oct-12 23:00N 47°11' W 122°37'1 1.2
2017-Oct-12 22:30N 47°11' W 122°38'0 0.6
2017-Oct-12 22:00N 47°11' W 122°38'1 1.1
2017-Oct-12 21:30N 47°11' W 122°39'2 3.2
2017-Oct-12 20:59N 47°10' W 122°36'0 0.0
2017-Oct-12 20:22N 47°10' W 122°36'1 1.8
2017-Oct-12 20:00N 47°10' W 122°37'2 3.7
2017-Oct-12 19:21N 47°11' W 122°41'3 8.6
2017-Oct-12 19:00N 47°10' W 122°36'0 0.0
2017-Oct-12 18:30N 47°10' W 122°36'0 0.0
2017-Oct-12 18:00N 47°10' W 122°36'3 5.4
2017-Oct-12 17:26N 47°11' W 122°41'3 7.0
2017-Oct-12 17:00N 47°10' W 122°36'3 5.7
2017-Oct-12 16:28N 47°11' W 122°41'3 6.4
2017-Oct-12 16:00N 47°10' W 122°36'3 4.9
2017-Oct-12 15:23N 47°11' W 122°41'3 7.8
2017-Oct-12 14:59N 47°10' W 122°36'3 6.1
2017-Oct-12 14:30N 47°11' W 122°41'1 2.4
2017-Oct-12 14:00N 47°11' W 122°39'2 3.4
2017-Oct-12 13:30N 47°11' W 122°36'3 5.3
2017-Oct-12 13:00N 47°11' W 122°40'2 4.7
2017-Oct-12 12:30N 47°11' W 122°37'2 3.9
2017-Oct-12 12:00N 47°11' W 122°40'2 0.3
2017-Oct-12 04:29N 47°10' W 122°36'3 6.1
2017-Oct-12 03:59N 47°11' W 122°41'3 5.6
2017-Oct-12 03:27N 47°11' W 122°36'2 4.0
2017-Oct-12 02:59N 47°11' W 122°39'1 2.8
2017-Oct-12 02:30N 47°10' W 122°38'2 4.2
2017-Oct-12 01:59N 47°11' W 122°41'3 6.3
2017-Oct-12 01:30N 47°10' W 122°36'3 6.0
2017-Oct-12 01:00N 47°11' W 122°41'3 6.0
2017-Oct-12 00:30N 47°10' W 122°36'1 2.2
2017-Oct-12 00:00N 47°11' W 122°38'0 1.0
2017-Oct-11 23:30N 47°11' W 122°39'1 1.5
2017-Oct-11 23:00N 47°11' W 122°37'1 1.5
2017-Oct-11 22:30N 47°11' W 122°39'1 1.3
2017-Oct-11 22:00N 47°11' W 122°38'1 1.1
2017-Oct-11 21:29N 47°11' W 122°38'2 3.3
2017-Oct-11 21:00N 47°10' W 122°36'0 0.0
2017-Oct-11 20:30N 47°10' W 122°36'1 2.0
2017-Oct-11 20:00N 47°10' W 122°37'2 4.6
2017-Oct-11 19:30N 47°11' W 122°41'3 6.1
2017-Oct-11 19:00N 47°10' W 122°36'0 0.0
2017-Oct-11 18:30N 47°10' W 122°36'0 0.0
2017-Oct-11 18:00N 47°10' W 122°36'3 4.5
2017-Oct-11 17:20N 47°11' W 122°41'3 9.2
2017-Oct-11 17:00N 47°10' W 122°36'2 0.1
2017-Oct-11 00:00N 47°11' W 122°39'1 1.5
2017-Oct-10 23:30N 47°11' W 122°38'1 1.6
2017-Oct-10 23:01N 47°10' W 122°38'1 1.5
2017-Oct-10 22:30N 47°11' W 122°37'0 0.8
2017-Oct-10 22:00N 47°11' W 122°38'0 0.7
2017-Oct-10 21:30N 47°11' W 122°38'2 2.6
2017-Oct-10 20:54N 47°10' W 122°36'0 0.0
2017-Oct-10 20:30N 47°10' W 122°36'1 2.5
2017-Oct-10 20:00N 47°10' W 122°38'2 4.4
2017-Oct-10 19:30N 47°11' W 122°41'3 6.1
2017-Oct-10 19:00N 47°10' W 122°36'0 0.0
2017-Oct-10 18:29N 47°10' W 122°36'0 0.1
2017-Oct-10 18:00N 47°10' W 122°36'3 6.0
2017-Oct-10 17:30N 47°11' W 122°41'3 6.0
2017-Oct-10 17:01N 47°10' W 122°36'3 5.8
2017-Oct-10 16:29N 47°11' W 122°41'3 6.3
2017-Oct-10 16:00N 47°10' W 122°36'3 5.2
2017-Oct-10 15:25N 47°11' W 122°41'3 6.8
2017-Oct-10 14:59N 47°10' W 122°36'1 1.2
2017-Oct-10 13:59N 47°10' W 122°38'1 2.7
2017-Oct-10 13:31N 47°11' W 122°36'2 4.9
2017-Oct-10 13:00N 47°11' W 122°40'3 5.1
2017-Oct-10 12:30N 47°11' W 122°36'3 5.2
2017-Oct-10 12:00N 47°11' W 122°40'3 0.4
2017-Oct-10 04:31N 47°10' W 122°36'0 0.0
2017-Oct-10 04:30N 47°10' W 122°36'3 6.2
2017-Oct-10 04:00N 47°11' W 122°41'3 5.8
2017-Oct-10 03:30N 47°11' W 122°36'2 4.1
2017-Oct-10 03:00N 47°11' W 122°39'1 2.7
2017-Oct-10 02:30N 47°10' W 122°38'2 4.2
2017-Oct-10 01:59N 47°11' W 122°41'3 5.9
2017-Oct-10 01:28N 47°10' W 122°36'3 6.5
2017-Oct-10 01:00N 47°11' W 122°41'3 5.9
2017-Oct-10 00:30N 47°10' W 122°36'1 2.4
2017-Oct-10 00:00N 47°11' W 122°38'0 0.9
2017-Oct-09 23:30N 47°11' W 122°38'1 1.3
2017-Oct-09 23:00N 47°11' W 122°38'1 1.6
2017-Oct-09 22:30N 47°11' W 122°39'1 1.7
2017-Oct-09 22:00N 47°11' W 122°38'1 1.6
2017-Oct-09 21:30N 47°11' W 122°39'2 3.6
2017-Oct-09 21:00N 47°10' W 122°36'0 0.0
2017-Oct-09 20:30N 47°10' W 122°36'0 0.9
2017-Oct-09 20:00N 47°11' W 122°37'3 4.6
2017-Oct-09 19:26N 47°11' W 122°41'3 6.9
2017-Oct-09 19:00N 47°10' W 122°36'0 0.1
2017-Oct-09 18:30N 47°10' W 122°36'0 0.0
2017-Oct-09 18:00N 47°10' W 122°36'3 6.0
2017-Oct-09 17:30N 47°11' W 122°41'3 6.2
2017-Oct-09 17:00N 47°10' W 122°36'3 5.8
2017-Oct-09 16:29N 47°11' W 122°41'3 6.4
2017-Oct-09 16:00N 47°10' W 122°36'3 6.0
2017-Oct-09 15:30N 47°11' W 122°41'3 6.0
2017-Oct-09 15:00N 47°10' W 122°36'3 5.9
2017-Oct-09 14:30N 47°11' W 122°40'2 4.3
2017-Oct-09 14:00N 47°10' W 122°38'1 2.5
2017-Oct-09 13:30N 47°11' W 122°37'3 5.3
2017-Oct-09 13:00N 47°11' W 122°40'3 5.5
2017-Oct-09 12:30N 47°11' W 122°36'3 5.6
2017-Oct-09 12:00N 47°11' W 122°40'3 5.4
2017-Oct-09 11:28N 47°10' W 122°36'0 0.0
2017-Oct-09 10:58N 47°10' W 122°36'0 0.0
2017-Oct-09 10:30N 47°10' W 122°36'0 0.0
2017-Oct-09 10:00N 47°10' W 122°36'0 0.0
2017-Oct-09 09:30N 47°10' W 122°36'0 0.0
2017-Oct-09 08:58N 47°10' W 122°36'0 0.0
2017-Oct-09 07:36N 47°10' W 122°36'0 0.0
2017-Oct-09 07:10N 47°10' W 122°36'0 0.0
2017-Oct-09 07:00N 47°10' W 122°36'0 0.0
2017-Oct-09 06:30N 47°10' W 122°36'0 0.0
2017-Oct-09 06:00N 47°10' W 122°36'0 0.0
2017-Oct-09 05:30N 47°10' W 122°36'0 0.0
2017-Oct-09 05:00N 47°10' W 122°36'0 0.0
2017-Oct-09 04:30N 47°10' W 122°36'3 5.8
2017-Oct-09 03:59N 47°11' W 122°41'3 6.0
2017-Oct-09 03:30N 47°10' W 122°36'2 4.0
2017-Oct-09 03:00N 47°11' W 122°39'1 2.7
2017-Oct-09 02:30N 47°10' W 122°38'  
Track history (hours):
 
Tides and Currents Weather Stations Pressure Air Temp Water Temp Dewpoint Dewpoint Depression Visibility Wind Speed Wind Dir Waves Ship Positions

Christine Anderson

Owner: PIERCE, COUNTY OF, TACOMA, WA. More information available from US FCC via Universal Licensing System and Coast Guard Vessel Documentation Center.

Last reported at 2017-Oct-19 02:00 UTC. Time now 2017-Oct-19 02:23 UTC.
Position N 47°11' W 122°41'.

Length 60 m; draft 3 m.

Type: Passenger vessel. MMSI: 366659730.

Date/timePositionNaut miles runAvg speedWind from/ knotsBaromVisibWave heightAir tempDewpointWater temp
2017-Oct-19 02:00N 47°11' W 122°41'3 5.9
2017-Oct-19 01:29N 47°10' W 122°36'3 5.0
2017-Oct-19 00:53N 47°11' W 122°41'3 8.1
2017-Oct-19 00:30N 47°10' W 122°36'1 2.9
2017-Oct-19 00:00N 47°10' W 122°38'0 0.9
2017-Oct-18 23:30N 47°11' W 122°38'0 0.6
2017-Oct-18 23:00N 47°10' W 122°38'1 1.1
2017-Oct-18 22:30N 47°11' W 122°38'0 0.2
2017-Oct-18 22:00N 47°11' W 122°38'0 0.7
2017-Oct-18 21:30N 47°11' W 122°38'2 2.1
2017-Oct-18 20:43N 47°10' W 122°36'0 0.0
2017-Oct-18 20:26N 47°10' W 122°36'1 2.3
2017-Oct-18 19:58N 47°10' W 122°38'2 4.8
2017-Oct-18 19:30N 47°11' W 122°41'3 6.0
2017-Oct-18 18:59N 47°10' W 122°36'0 0.2
2017-Oct-18 18:30N 47°11' W 122°36'3 2.7
2017-Oct-18 17:23N 47°11' W 122°41'3 7.8
2017-Oct-18 16:59N 47°10' W 122°36'3 6.2
2017-Oct-18 16:30N 47°11' W 122°41'3 5.9
2017-Oct-18 16:00N 47°10' W 122°36'3 4.3
2017-Oct-18 15:19N 47°11' W 122°41'3 9.9
2017-Oct-18 15:00N 47°10' W 122°36'1 1.2
2017-Oct-18 14:00N 47°10' W 122°38'1 2.4
2017-Oct-18 13:30N 47°11' W 122°37'2 4.4
2017-Oct-18 13:00N 47°11' W 122°40'2 4.9
2017-Oct-18 12:30N 47°11' W 122°36'3 5.3
2017-Oct-18 12:00N 47°11' W 122°40'3 5.5
2017-Oct-18 11:30N 47°10' W 122°36'0 0.0
2017-Oct-18 04:29N 47°10' W 122°36'3 5.8
2017-Oct-18 04:00N 47°11' W 122°40'2 4.5
2017-Oct-18 03:29N 47°11' W 122°37'1 2.2
2017-Oct-18 03:00N 47°11' W 122°38'1 2.4
2017-Oct-18 02:30N 47°10' W 122°38'2 4.3
2017-Oct-18 02:00N 47°11' W 122°41'3 6.1
2017-Oct-18 01:30N 47°10' W 122°36'3 6.2
2017-Oct-18 01:00N 47°11' W 122°41'3 5.9
2017-Oct-18 00:30N 47°10' W 122°36'2 4.0
2017-Oct-18 00:00N 47°11' W 122°39'1 2.6
2017-Oct-17 23:30N 47°11' W 122°37'0 0.8
2017-Oct-17 23:00N 47°11' W 122°38'0 0.6
2017-Oct-17 22:30N 47°11' W 122°38'0 1.0
2017-Oct-17 22:00N 47°11' W 122°39'1 1.9
2017-Oct-17 21:30N 47°12' W 122°38'1 1.4
2017-Oct-17 20:27N 47°10' W 122°36'1 1.9
2017-Oct-17 20:00N 47°10' W 122°37'2 4.3
2017-Oct-17 19:28N 47°11' W 122°41'3 6.7
2017-Oct-17 19:00N 47°10' W 122°36'0 0.0
2017-Oct-17 18:30N 47°10' W 122°36'2 3.9
2017-Oct-17 18:00N 47°11' W 122°39'1 2.4
2017-Oct-17 17:30N 47°10' W 122°38'1 1.9
2017-Oct-17 17:00N 47°10' W 122°36'3 6.1
2017-Oct-17 16:30N 47°11' W 122°41'3 6.1
2017-Oct-17 16:00N 47°10' W 122°36'3 6.1
2017-Oct-17 15:30N 47°11' W 122°41'3 4.9
2017-Oct-17 14:53N 47°10' W 122°36'3 5.7
2017-Oct-17 14:21N 47°11' W 122°41'2 6.4
2017-Oct-17 14:00N 47°10' W 122°38'1 2.6
2017-Oct-17 13:30N 47°11' W 122°37'2 4.6
2017-Oct-17 13:00N 47°11' W 122°40'2 4.8
2017-Oct-17 12:30N 47°11' W 122°36'2 4.9
2017-Oct-17 12:00N 47°11' W 122°40'3 5.2
2017-Oct-17 11:30N 47°10' W 122°36'0 0.0
2017-Oct-17 04:33N 47°10' W 122°36'0 0.0
2017-Oct-17 04:29N 47°10' W 122°36'3 6.3
2017-Oct-17 04:00N 47°11' W 122°41'3 5.3
2017-Oct-17 03:30N 47°11' W 122°37'1 2.0
2017-Oct-17 03:00N 47°10' W 122°38'1 1.5
2017-Oct-17 02:30N 47°10' W 122°38'2 4.4
2017-Oct-17 02:00N 47°11' W 122°41'3 6.1
2017-Oct-17 01:30N 47°10' W 122°36'3 5.7
2017-Oct-17 01:00N 47°11' W 122°40'3 5.6
2017-Oct-17 00:30N 47°10' W 122°36'1 2.4
2017-Oct-17 00:00N 47°11' W 122°37'1 2.3
2017-Oct-16 23:30N 47°11' W 122°39'1 2.4
2017-Oct-16 23:00N 47°11' W 122°37'1 1.5
2017-Oct-16 22:30N 47°11' W 122°38'0 0.7
2017-Oct-16 22:00N 47°11' W 122°38'1 1.2
2017-Oct-16 21:30N 47°11' W 122°39'2 3.2
2017-Oct-16 21:00N 47°10' W 122°36'0 0.0
2017-Oct-16 20:30N 47°10' W 122°36'1 2.0
2017-Oct-16 19:58N 47°10' W 122°38'2 5.0
2017-Oct-16 19:30N 47°11' W 122°41'3 5.5
2017-Oct-16 18:57N 47°10' W 122°36'0 0.0
2017-Oct-16 18:21N 47°10' W 122°36'0 0.0
2017-Oct-16 17:55N 47°10' W 122°36'3 6.8
2017-Oct-16 17:28N 47°11' W 122°41'3 6.4
2017-Oct-16 17:00N 47°10' W 122°36'3 6.2
2017-Oct-16 16:30N 47°11' W 122°41'3 4.5
2017-Oct-16 15:50N 47°10' W 122°36'3 8.8
2017-Oct-16 15:29N 47°11' W 122°41'3 6.2
2017-Oct-16 15:00N 47°10' W 122°36'1 1.3
2017-Oct-16 13:59N 47°10' W 122°38'1 2.0
2017-Oct-16 13:28N 47°11' W 122°37'2 4.1
2017-Oct-16 13:00N 47°11' W 122°40'2 4.9
2017-Oct-16 12:30N 47°11' W 122°36'2 4.7
2017-Oct-16 12:00N 47°11' W 122°40'3 5.0
2017-Oct-16 11:30N 47°10' W 122°36'0 0.0
2017-Oct-16 11:00N 47°10' W 122°36'0 0.0
2017-Oct-16 10:30N 47°10' W 122°36'0 0.0
2017-Oct-16 10:00N 47°10' W 122°36'0 0.0
2017-Oct-16 09:30N 47°10' W 122°36'0 0.0
2017-Oct-16 08:59N 47°10' W 122°36'0 0.0
2017-Oct-16 08:27N 47°10' W 122°36'0 0.0
2017-Oct-16 07:59N 47°10' W 122°36'0 0.0
2017-Oct-16 07:29N 47°10' W 122°36'0 0.0
2017-Oct-16 06:58N 47°10' W 122°36'0 0.0
2017-Oct-16 06:29N 47°10' W 122°36'0 0.0
2017-Oct-16 06:00N 47°10' W 122°36'0 0.0
2017-Oct-16 05:30N 47°10' W 122°36'0 0.0
2017-Oct-16 04:27N 47°10' W 122°36'3 6.6
2017-Oct-16 04:00N 47°11' W 122°40'2 4.4
2017-Oct-16 03:27N 47°11' W 122°37'1 2.4
2017-Oct-16 03:00N 47°11' W 122°39'1 2.4
2017-Oct-16 02:30N 47°10' W 122°38'2 4.3
2017-Oct-16 01:59N 47°11' W 122°41'3 6.3
2017-Oct-16 01:30N 47°10' W 122°36'3 5.7
2017-Oct-16 01:00N 47°11' W 122°40'3 5.6
2017-Oct-16 00:30N 47°10' W 122°36'0 0.0
2017-Oct-15 21:19N 47°10' W 122°36'0 0.0
2017-Oct-15 21:00N 47°10' W 122°36'0 0.0
2017-Oct-15 20:30N 47°10' W 122°36'0 0.8
2017-Oct-15 20:00N 47°10' W 122°37'3 3.6
2017-Oct-15 19:17N 47°11' W 122°41'310.6
2017-Oct-15 19:00N 47°10' W 122°36'0 0.1
2017-Oct-15 18:29N 47°10' W 122°36'0 0.0
2017-Oct-15 17:59N 47°10' W 122°36'3 6.3
2017-Oct-15 17:30N 47°11' W 122°41'3 5.8
2017-Oct-15 16:59N 47°10' W 122°36'3 6.1
2017-Oct-15 16:30N 47°11' W 122°40'3 5.7
2017-Oct-15 16:00N 47°10' W 122°36'3 5.8
2017-Oct-15 15:30N 47°11' W 122°40'3 5.9
2017-Oct-15 15:00N 47°10' W 122°36'1 1.2
2017-Oct-15 14:00N 47°10' W 122°38'1 2.4
2017-Oct-15 13:30N 47°10' W 122°36'0 0.0
2017-Oct-15 05:49N 47°10' W 122°36'3 9.2
2017-Oct-15 05:30N 47°11' W 122°40'3 5.7
2017-Oct-15 05:00N 47°10' W 122°36'0 0.2
2017-Oct-15 04:30N 47°10' W 122°36'3 6.0
2017-Oct-15 04:00N 47°11' W 122°41'2 4.7
2017-Oct-15 03:30N 47°11' W 122°37'1 1.7
2017-Oct-15 03:00N 47°11' W 122°38'1 2.2
2017-Oct-15 02:30N 47°10' W 122°38'2 4.4
2017-Oct-15 02:00N 47°11' W 122°41'3 6.0
2017-Oct-15 01:30N 47°10' W 122°36'3 5.9
2017-Oct-15 00:59N 47°11' W 122°41'3 6.2
2017-Oct-15 00:30N 47°10' W 122°36'1 2.3
2017-Oct-15 00:00N 47°11' W 122°38'0 0.9
2017-Oct-14 23:30N 47°11' W 122°38'0 0.6
2017-Oct-14 23:00N 47°11' W 122°38'0 0.2
2017-Oct-14 22:30N 47°11' W 122°38'0 0.1
2017-Oct-14 22:00N 47°11' W 122°38'0 0.7
2017-Oct-14 21:30N 47°11' W 122°39'2 3.4
2017-Oct-14 21:00N 47°10' W 122°36'0 0.0
2017-Oct-14 20:27N 47°10' W 122°36'0 0.7
2017-Oct-14 20:00N 47°10' W 122°37'3 4.2
2017-Oct-14 19:22N 47°11' W 122°41'3 8.3
2017-Oct-14 19:00N 47°10' W 122°36'0 0.1
2017-Oct-14 18:29N 47°10' W 122°36'0 0.0
2017-Oct-14 18:00N 47°10' W 122°36'3 6.1
2017-Oct-14 17:30N 47°11' W 122°40'3 5.6
2017-Oct-14 16:59N 47°10' W 122°36'3 6.2
2017-Oct-14 16:30N 47°11' W 122°40'3 5.8
2017-Oct-14 16:00N 47°10' W 122°36'3 6.0
2017-Oct-14 15:30N 47°11' W 122°40'3 5.7
2017-Oct-14 15:00N 47°10' W 122°36'3 5.9
2017-Oct-14 14:30N 47°11' W 122°41'2 4.4
2017-Oct-14 14:00N 47°10' W 122°38'1 2.2
2017-Oct-14 13:30N 47°10' W 122°36'3 5.7
2017-Oct-14 13:00N 47°11' W 122°40'3 5.3
2017-Oct-14 12:28N 47°10' W 122°36'0 0.0
2017-Oct-14 06:05N 47°10' W 122°36'0 3.0
2017-Oct-14 05:59N 47°11' W 122°36'3 4.1
2017-Oct-14 05:18N 47°11' W 122°41'310.0
2017-Oct-14 05:00N 47°10' W 122°36'0 0.0
2017-Oct-14 04:30N 47°10' W 122°36'3 5.1
2017-Oct-14 04:00N 47°11' W 122°40'1 2.4
2017-Oct-14 03:30N 47°11' W 122°38'1 1.2
2017-Oct-14 03:00N 47°11' W 122°37'1 1.8
2017-Oct-14 02:30N 47°10' W 122°38'2 4.5
2017-Oct-14 02:00N 47°11' W 122°41'2 1.2
2017-Oct-14 00:02N 47°11' W 122°37'1 1.0
2017-Oct-13 23:19N 47°10' W 122°36'1 3.0
2017-Oct-13 23:00N 47°11' W 122°38'0 0.8
2017-Oct-13 22:30N 47°11' W 122°38'0 0.7
2017-Oct-13 22:00N 47°11' W 122°39'0 0.0
2017-Oct-13 21:30N 47°11' W 122°39'2 3.3
2017-Oct-13 20:59N 47°10' W 122°36'0 0.0
2017-Oct-13 20:29N 47°10' W 122°36'1 2.4
2017-Oct-13 20:00N 47°10' W 122°38'2 4.7
2017-Oct-13 19:30N 47°11' W 122°41'3 5.7
2017-Oct-13 18:59N 47°10' W 122°36'0 0.0
2017-Oct-13 18:30N 47°10' W 122°36'0 0.0
2017-Oct-13 18:00N 47°10' W 122°36'3 5.2
2017-Oct-13 17:25N 47°11' W 122°41'3 7.1
2017-Oct-13 17:00N 47°10' W 122°36'3 6.1
2017-Oct-13 16:30N 47°11' W 122°41'3 6.2
2017-Oct-13 16:00N 47°10' W 122°36'3 5.8
2017-Oct-13 15:29N 47°11' W 122°41'3 6.2
2017-Oct-13 15:00N 47°11' W 122°36'3 5.8
2017-Oct-13 14:30N 47°11' W 122°40'2 4.3
2017-Oct-13 14:00N 47°10' W 122°38'1 2.7
2017-Oct-13 13:30N 47°11' W 122°36'3 5.4
2017-Oct-13 13:00N 47°11' W 122°40'3 5.5
2017-Oct-13 12:30N 47°11' W 122°36'3 5.6
2017-Oct-13 12:00N 47°11' W 122°40'3 5.0
2017-Oct-13 11:26N 47°10' W 122°36'0 0.0
2017-Oct-13 04:27N 47°10' W 122°36'3 6.9
2017-Oct-13 04:00N 47°11' W 122°41'3 5.9
2017-Oct-13 03:29N 47°10' W 122°36'3 5.2
2017-Oct-13 03:00N 47°11' W 122°40'2 3.7
2017-Oct-13 02:30N 47°10' W 122°38'2 4.6
2017-Oct-13 02:00N 47°11' W 122°41'3 4.5
2017-Oct-13 01:20N 47°10' W 122°36'3 8.8
2017-Oct-13 01:00N 47°11' W 122°41'3 5.8
2017-Oct-13 00:29N 47°10' W 122°36'2 3.3
2017-Oct-13 00:00N 47°11' W 122°38'0 0.7
2017-Oct-12 23:30N 47°11' W 122°38'0 0.9
2017-Oct-12 23:00N 47°11' W 122°37'1 1.2
2017-Oct-12 22:30N 47°11' W 122°38'0 0.6
2017-Oct-12 22:00N 47°11' W 122°38'1 1.1
2017-Oct-12 21:30N 47°11' W 122°39'2 3.2
2017-Oct-12 20:59N 47°10' W 122°36'0 0.0
2017-Oct-12 20:22N 47°10' W 122°36'1 1.8
2017-Oct-12 20:00N 47°10' W 122°37'2 3.7
2017-Oct-12 19:21N 47°11' W 122°41'3 8.6
2017-Oct-12 19:00N 47°10' W 122°36'0 0.0
2017-Oct-12 18:30N 47°10' W 122°36'0 0.0
2017-Oct-12 18:00N 47°10' W 122°36'3 5.4
2017-Oct-12 17:26N 47°11' W 122°41'3 7.0
2017-Oct-12 17:00N 47°10' W 122°36'3 5.7
2017-Oct-12 16:28N 47°11' W 122°41'3 6.4
2017-Oct-12 16:00N 47°10' W 122°36'3 4.9
2017-Oct-12 15:23N 47°11' W 122°41'3 7.8
2017-Oct-12 14:59N 47°10' W 122°36'3 6.1
2017-Oct-12 14:30N 47°11' W 122°41'1 2.4
2017-Oct-12 14:00N 47°11' W 122°39'2 3.4
2017-Oct-12 13:30N 47°11' W 122°36'3 5.3
2017-Oct-12 13:00N 47°11' W 122°40'2 4.7
2017-Oct-12 12:30N 47°11' W 122°37'2 3.9
2017-Oct-12 12:00N 47°11' W 122°40'2 0.3
2017-Oct-12 04:29N 47°10' W 122°36'3 6.1
2017-Oct-12 03:59N 47°11' W 122°41'3 5.6
2017-Oct-12 03:27N 47°11' W 122°36'2 4.0
2017-Oct-12 02:59N 47°11' W 122°39'1 2.8
2017-Oct-12 02:30N 47°10' W 122°38'2 4.2
2017-Oct-12 01:59N 47°11' W 122°41'3 6.3
2017-Oct-12 01:30N 47°10' W 122°36'3 6.0
2017-Oct-12 01:00N 47°11' W 122°41'3 6.0
2017-Oct-12 00:30N 47°10' W 122°36'1 2.2
2017-Oct-12 00:00N 47°11' W 122°38'0 1.0
2017-Oct-11 23:30N 47°11' W 122°39'1 1.5
2017-Oct-11 23:00N 47°11' W 122°37'1 1.5
2017-Oct-11 22:30N 47°11' W 122°39'1 1.3
2017-Oct-11 22:00N 47°11' W 122°38'1 1.1
2017-Oct-11 21:29N 47°11' W 122°38'2 3.3
2017-Oct-11 21:00N 47°10' W 122°36'0 0.0
2017-Oct-11 20:30N 47°10' W 122°36'1 2.0
2017-Oct-11 20:00N 47°10' W 122°37'2 4.6
2017-Oct-11 19:30N 47°11' W 122°41'3 6.1
2017-Oct-11 19:00N 47°10' W 122°36'0 0.0
2017-Oct-11 18:30N 47°10' W 122°36'0 0.0
2017-Oct-11 18:00N 47°10' W 122°36'3 4.5
2017-Oct-11 17:20N 47°11' W 122°41'3 9.2
2017-Oct-11 17:00N 47°10' W 122°36'2 0.1
2017-Oct-11 00:00N 47°11' W 122°39'1 1.5
2017-Oct-10 23:30N 47°11' W 122°38'1 1.6
2017-Oct-10 23:01N 47°10' W 122°38'1 1.5
2017-Oct-10 22:30N 47°11' W 122°37'0 0.8
2017-Oct-10 22:00N 47°11' W 122°38'0 0.7
2017-Oct-10 21:30N 47°11' W 122°38'2 2.6
2017-Oct-10 20:54N 47°10' W 122°36'0 0.0
2017-Oct-10 20:30N 47°10' W 122°36'1 2.5
2017-Oct-10 20:00N 47°10' W 122°38'2 4.4
2017-Oct-10 19:30N 47°11' W 122°41'3 6.1
2017-Oct-10 19:00N 47°10' W 122°36'0 0.0
2017-Oct-10 18:29N 47°10' W 122°36'0 0.1
2017-Oct-10 18:00N 47°10' W 122°36'3 6.0
2017-Oct-10 17:30N 47°11' W 122°41'3 6.0
2017-Oct-10 17:01N 47°10' W 122°36'3 5.8
2017-Oct-10 16:29N 47°11' W 122°41'3 6.3
2017-Oct-10 16:00N 47°10' W 122°36'3 5.2
2017-Oct-10 15:25N 47°11' W 122°41'3 6.8
2017-Oct-10 14:59N 47°10' W 122°36'1 1.2
2017-Oct-10 13:59N 47°10' W 122°38'1 2.7
2017-Oct-10 13:31N 47°11' W 122°36'2 4.9
2017-Oct-10 13:00N 47°11' W 122°40'3 5.1
2017-Oct-10 12:30N 47°11' W 122°36'3 5.2
2017-Oct-10 12:00N 47°11' W 122°40'3 0.4
2017-Oct-10 04:31N 47°10' W 122°36'0 0.0
2017-Oct-10 04:30N 47°10' W 122°36'3 6.2
2017-Oct-10 04:00N 47°11' W 122°41'3 5.8
2017-Oct-10 03:30N 47°11' W 122°36'2 4.1
2017-Oct-10 03:00N 47°11' W 122°39'1 2.7
2017-Oct-10 02:30N 47°10' W 122°38'2 4.2
2017-Oct-10 01:59N 47°11' W 122°41'3 5.9
2017-Oct-10 01:28N 47°10' W 122°36'3 6.5
2017-Oct-10 01:00N 47°11' W 122°41'3 5.9
2017-Oct-10 00:30N 47°10' W 122°36'1 2.4
2017-Oct-10 00:00N 47°11' W 122°38'0 0.9
2017-Oct-09 23:30N 47°11' W 122°38'1 1.3
2017-Oct-09 23:00N 47°11' W 122°38'1 1.6
2017-Oct-09 22:30N 47°11' W 122°39'1 1.7
2017-Oct-09 22:00N 47°11' W 122°38'1 1.6
2017-Oct-09 21:30N 47°11' W 122°39'2 3.6
2017-Oct-09 21:00N 47°10' W 122°36'0 0.0
2017-Oct-09 20:30N 47°10' W 122°36'0 0.9
2017-Oct-09 20:00N 47°11' W 122°37'3 4.6
2017-Oct-09 19:26N 47°11' W 122°41'3 6.9
2017-Oct-09 19:00N 47°10' W 122°36'0 0.1
2017-Oct-09 18:30N 47°10' W 122°36'0 0.0
2017-Oct-09 18:00N 47°10' W 122°36'3 6.0
2017-Oct-09 17:30N 47°11' W 122°41'3 6.2
2017-Oct-09 17:00N 47°10' W 122°36'3 5.8
2017-Oct-09 16:29N 47°11' W 122°41'3 6.4
2017-Oct-09 16:00N 47°10' W 122°36'3 6.0
2017-Oct-09 15:30N 47°11' W 122°41'3 6.0
2017-Oct-09 15:00N 47°10' W 122°36'3 5.9
2017-Oct-09 14:30N 47°11' W 122°40'2 4.3
2017-Oct-09 14:00N 47°10' W 122°38'1 2.5
2017-Oct-09 13:30N 47°11' W 122°37'3 5.3
2017-Oct-09 13:00N 47°11' W 122°40'3 5.5
2017-Oct-09 12:30N 47°11' W 122°36'3 5.6
2017-Oct-09 12:00N 47°11' W 122°40'3 5.4
2017-Oct-09 11:28N 47°10' W 122°36'0 0.0
2017-Oct-09 10:58N 47°10' W 122°36'0 0.0
2017-Oct-09 10:30N 47°10' W 122°36'0 0.0
2017-Oct-09 10:00N 47°10' W 122°36'0 0.0
2017-Oct-09 09:30N 47°10' W 122°36'0 0.0
2017-Oct-09 08:58N 47°10' W 122°36'0 0.0
2017-Oct-09 07:36N 47°10' W 122°36'0 0.0
2017-Oct-09 07:10N 47°10' W 122°36'0 0.0
2017-Oct-09 07:00N 47°10' W 122°36'0 0.0
2017-Oct-09 06:30N 47°10' W 122°36'0 0.0
2017-Oct-09 06:00N 47°10' W 122°36'0 0.0
2017-Oct-09 05:30N 47°10' W 122°36'0 0.0
2017-Oct-09 05:00N 47°10' W 122°36'0 0.0
2017-Oct-09 04:30N 47°10' W 122°36'3 5.8
2017-Oct-09 03:59N 47°11' W 122°41'3 6.0
2017-Oct-09 03:30N 47°10' W 122°36'2 4.0
2017-Oct-09 03:00N 47°11' W 122°39'1 2.7
2017-Oct-09 02:30N 47°10' W 122°38'  

Dump ship's entire track history